sensor_id;sensor_type;location;lat;lon;timestamp;P1;durP1;ratioP1;P2;durP2;ratioP2
5209;SDS011;2624;48.048;11.706;2023-04-10T00:01:34;5.47;;;4.33;;
5209;SDS011;2624;48.048;11.706;2023-04-10T00:06:37;10.27;;;5.60;;
5209;SDS011;2624;48.048;11.706;2023-04-10T00:11:40;6.07;;;4.03;;
5209;SDS011;2624;48.048;11.706;2023-04-10T00:16:43;5.53;;;3.60;;
5209;SDS011;2624;48.048;11.706;2023-04-10T00:21:45;5.07;;;3.70;;
5209;SDS011;2624;48.048;11.706;2023-04-10T00:26:47;7.57;;;4.83;;
5209;SDS011;2624;48.048;11.706;2023-04-10T00:31:50;5.80;;;4.00;;
5209;SDS011;2624;48.048;11.706;2023-04-10T00:36:52;7.13;;;3.87;;
5209;SDS011;2624;48.048;11.706;2023-04-10T00:41:53;5.47;;;3.83;;
5209;SDS011;2624;48.048;11.706;2023-04-10T00:46:57;9.63;;;4.67;;
5209;SDS011;2624;48.048;11.706;2023-04-10T00:51:59;6.37;;;4.50;;
5209;SDS011;2624;48.048;11.706;2023-04-10T00:57:01;5.30;;;3.57;;
5209;SDS011;2624;48.048;11.706;2023-04-10T01:02:05;5.80;;;3.67;;
5209;SDS011;2624;48.048;11.706;2023-04-10T01:07:09;5.87;;;4.10;;
5209;SDS011;2624;48.048;11.706;2023-04-10T01:12:22;8.60;;;4.60;;
5209;SDS011;2624;48.048;11.706;2023-04-10T01:17:37;6.87;;;4.40;;
5209;SDS011;2624;48.048;11.706;2023-04-10T01:28:18;4.40;;;3.67;;
5209;SDS011;2624;48.048;11.706;2023-04-10T01:33:37;4.00;;;2.70;;
5209;SDS011;2624;48.048;11.706;2023-04-10T01:38:44;3.87;;;3.23;;
5209;SDS011;2624;48.048;11.706;2023-04-10T01:43:47;7.27;;;4.30;;
5209;SDS011;2624;48.048;11.706;2023-04-10T01:48:53;4.40;;;3.30;;
5209;SDS011;2624;48.048;11.706;2023-04-10T01:53:56;6.80;;;3.97;;
5209;SDS011;2624;48.048;11.706;2023-04-10T01:58:59;5.70;;;3.43;;
5209;SDS011;2624;48.048;11.706;2023-04-10T02:04:04;6.37;;;4.17;;
5209;SDS011;2624;48.048;11.706;2023-04-10T02:09:09;3.60;;;3.27;;
5209;SDS011;2624;48.048;11.706;2023-04-10T02:14:17;4.60;;;3.80;;
5209;SDS011;2624;48.048;11.706;2023-04-10T02:19:24;5.40;;;3.20;;
5209;SDS011;2624;48.048;11.706;2023-04-10T02:24:27;5.17;;;2.87;;
5209;SDS011;2624;48.048;11.706;2023-04-10T02:29:30;6.57;;;4.47;;
5209;SDS011;2624;48.048;11.706;2023-04-10T02:34:33;4.20;;;3.70;;
5209;SDS011;2624;48.048;11.706;2023-04-10T02:39:34;6.37;;;3.87;;
5209;SDS011;2624;48.048;11.706;2023-04-10T02:44:36;6.90;;;4.40;;
5209;SDS011;2624;48.048;11.706;2023-04-10T02:49:40;4.80;;;3.57;;
5209;SDS011;2624;48.048;11.706;2023-04-10T02:54:43;5.77;;;3.47;;
5209;SDS011;2624;48.048;11.706;2023-04-10T02:59:45;6.10;;;2.80;;
5209;SDS011;2624;48.048;11.706;2023-04-10T03:04:51;5.20;;;3.50;;
5209;SDS011;2624;48.048;11.706;2023-04-10T03:09:53;5.37;;;3.10;;
5209;SDS011;2624;48.048;11.706;2023-04-10T03:14:55;4.10;;;2.83;;
5209;SDS011;2624;48.048;11.706;2023-04-10T03:19:58;3.37;;;3.10;;
5209;SDS011;2624;48.048;11.706;2023-04-10T03:25:00;3.17;;;2.97;;
5209;SDS011;2624;48.048;11.706;2023-04-10T03:30:02;3.47;;;3.00;;
5209;SDS011;2624;48.048;11.706;2023-04-10T03:35:05;4.43;;;3.37;;
5209;SDS011;2624;48.048;11.706;2023-04-10T03:40:08;3.30;;;3.00;;
5209;SDS011;2624;48.048;11.706;2023-04-10T03:45:11;3.53;;;3.00;;
5209;SDS011;2624;48.048;11.706;2023-04-10T03:50:14;4.30;;;3.70;;
5209;SDS011;2624;48.048;11.706;2023-04-10T03:55:16;12.53;;;5.00;;
5209;SDS011;2624;48.048;11.706;2023-04-10T04:00:19;7.37;;;4.50;;
5209;SDS011;2624;48.048;11.706;2023-04-10T04:05:23;6.30;;;3.60;;
5209;SDS011;2624;48.048;11.706;2023-04-10T04:10:25;6.00;;;3.80;;
5209;SDS011;2624;48.048;11.706;2023-04-10T04:15:27;7.73;;;3.53;;
5209;SDS011;2624;48.048;11.706;2023-04-10T04:20:30;4.97;;;3.73;;
5209;SDS011;2624;48.048;11.706;2023-04-10T04:25:31;8.93;;;4.97;;
5209;SDS011;2624;48.048;11.706;2023-04-10T04:30:33;8.27;;;4.77;;
5209;SDS011;2624;48.048;11.706;2023-04-10T04:35:36;8.37;;;4.90;;
5209;SDS011;2624;48.048;11.706;2023-04-10T04:40:38;7.87;;;4.57;;
5209;SDS011;2624;48.048;11.706;2023-04-10T04:45:40;6.27;;;4.43;;
5209;SDS011;2624;48.048;11.706;2023-04-10T04:50:43;8.87;;;4.97;;
5209;SDS011;2624;48.048;11.706;2023-04-10T04:55:45;6.10;;;4.40;;
5209;SDS011;2624;48.048;11.706;2023-04-10T05:00:46;4.50;;;4.07;;
5209;SDS011;2624;48.048;11.706;2023-04-10T05:05:49;9.63;;;4.63;;
5209;SDS011;2624;48.048;11.706;2023-04-10T05:10:51;5.30;;;3.77;;
5209;SDS011;2624;48.048;11.706;2023-04-10T05:15:53;6.80;;;4.50;;
5209;SDS011;2624;48.048;11.706;2023-04-10T05:20:56;3.60;;;2.90;;
5209;SDS011;2624;48.048;11.706;2023-04-10T05:25:58;4.97;;;3.00;;
5209;SDS011;2624;48.048;11.706;2023-04-10T05:30:59;5.07;;;3.50;;
5209;SDS011;2624;48.048;11.706;2023-04-10T05:36:03;7.53;;;4.33;;
5209;SDS011;2624;48.048;11.706;2023-04-10T05:41:05;5.77;;;3.83;;
5209;SDS011;2624;48.048;11.706;2023-04-10T05:46:07;5.77;;;3.80;;
5209;SDS011;2624;48.048;11.706;2023-04-10T05:51:11;5.93;;;3.60;;
5209;SDS011;2624;48.048;11.706;2023-04-10T05:56:13;3.63;;;3.20;;
5209;SDS011;2624;48.048;11.706;2023-04-10T06:01:15;5.97;;;4.17;;
5209;SDS011;2624;48.048;11.706;2023-04-10T06:06:19;8.63;;;5.03;;
5209;SDS011;2624;48.048;11.706;2023-04-10T06:11:20;7.40;;;4.20;;
5209;SDS011;2624;48.048;11.706;2023-04-10T06:16:23;8.10;;;4.93;;
5209;SDS011;2624;48.048;11.706;2023-04-10T06:21:27;13.60;;;5.17;;
5209;SDS011;2624;48.048;11.706;2023-04-10T06:26:28;6.83;;;5.13;;
5209;SDS011;2624;48.048;11.706;2023-04-10T06:31:31;12.00;;;5.53;;
5209;SDS011;2624;48.048;11.706;2023-04-10T06:36:34;4.87;;;4.20;;
5209;SDS011;2624;48.048;11.706;2023-04-10T06:41:36;10.03;;;6.00;;
5209;SDS011;2624;48.048;11.706;2023-04-10T06:46:38;6.40;;;4.70;;
5209;SDS011;2624;48.048;11.706;2023-04-10T06:51:41;10.13;;;7.03;;
5209;SDS011;2624;48.048;11.706;2023-04-10T06:56:47;10.47;;;5.93;;
5209;SDS011;2624;48.048;11.706;2023-04-10T07:01:48;9.97;;;7.23;;
5209;SDS011;2624;48.048;11.706;2023-04-10T07:06:52;9.73;;;5.00;;
5209;SDS011;2624;48.048;11.706;2023-04-10T07:11:53;7.27;;;5.20;;
5209;SDS011;2624;48.048;11.706;2023-04-10T07:16:55;10.67;;;6.87;;
5209;SDS011;2624;48.048;11.706;2023-04-10T07:21:58;8.00;;;5.00;;
5209;SDS011;2624;48.048;11.706;2023-04-10T07:27:00;8.33;;;5.93;;
5209;SDS011;2624;48.048;11.706;2023-04-10T07:32:02;8.93;;;6.73;;
5209;SDS011;2624;48.048;11.706;2023-04-10T07:37:06;9.67;;;5.27;;
5209;SDS011;2624;48.048;11.706;2023-04-10T07:42:08;6.83;;;5.80;;
5209;SDS011;2624;48.048;11.706;2023-04-10T07:47:10;8.20;;;5.33;;
5209;SDS011;2624;48.048;11.706;2023-04-10T07:52:14;8.40;;;6.17;;
5209;SDS011;2624;48.048;11.706;2023-04-10T07:57:15;7.50;;;5.47;;
5209;SDS011;2624;48.048;11.706;2023-04-10T08:02:17;8.80;;;5.00;;
5209;SDS011;2624;48.048;11.706;2023-04-10T08:07:20;6.83;;;4.80;;
5209;SDS011;2624;48.048;11.706;2023-04-10T08:12:22;4.47;;;4.03;;
5209;SDS011;2624;48.048;11.706;2023-04-10T08:17:24;12.57;;;6.90;;
5209;SDS011;2624;48.048;11.706;2023-04-10T08:22:27;7.93;;;4.77;;
5209;SDS011;2624;48.048;11.706;2023-04-10T08:27:28;7.57;;;6.23;;
5209;SDS011;2624;48.048;11.706;2023-04-10T08:32:30;7.97;;;4.83;;
5209;SDS011;2624;48.048;11.706;2023-04-10T08:37:33;6.60;;;4.20;;
5209;SDS011;2624;48.048;11.706;2023-04-10T08:42:35;6.37;;;4.67;;
5209;SDS011;2624;48.048;11.706;2023-04-10T08:47:37;8.03;;;5.47;;
5209;SDS011;2624;48.048;11.706;2023-04-10T08:52:42;6.47;;;4.43;;
5209;SDS011;2624;48.048;11.706;2023-04-10T08:57:46;5.13;;;4.17;;
5209;SDS011;2624;48.048;11.706;2023-04-10T09:02:48;8.63;;;4.73;;
5209;SDS011;2624;48.048;11.706;2023-04-10T09:07:55;7.77;;;6.87;;
5209;SDS011;2624;48.048;11.706;2023-04-10T09:12:57;6.33;;;5.73;;
5209;SDS011;2624;48.048;11.706;2023-04-10T09:17:59;5.80;;;5.30;;
5209;SDS011;2624;48.048;11.706;2023-04-10T09:23:04;6.00;;;4.83;;
5209;SDS011;2624;48.048;11.706;2023-04-10T09:28:20;10.00;;;5.20;;
5209;SDS011;2624;48.048;11.706;2023-04-10T09:33:22;5.43;;;3.97;;
5209;SDS011;2624;48.048;11.706;2023-04-10T09:38:27;6.77;;;4.10;;
5209;SDS011;2624;48.048;11.706;2023-04-10T09:43:29;6.60;;;5.03;;
5209;SDS011;2624;48.048;11.706;2023-04-10T09:48:31;5.23;;;4.43;;
5209;SDS011;2624;48.048;11.706;2023-04-10T09:53:34;4.70;;;3.67;;
5209;SDS011;2624;48.048;11.706;2023-04-10T09:58:49;5.57;;;3.90;;
5209;SDS011;2624;48.048;11.706;2023-04-10T10:03:52;4.50;;;4.10;;
5209;SDS011;2624;48.048;11.706;2023-04-10T10:08:56;4.10;;;3.73;;
5209;SDS011;2624;48.048;11.706;2023-04-10T10:14:02;2.37;;;2.17;;
5209;SDS011;2624;48.048;11.706;2023-04-10T10:19:08;3.00;;;2.80;;
5209;SDS011;2624;48.048;11.706;2023-04-10T10:24:14;2.83;;;2.50;;
5209;SDS011;2624;48.048;11.706;2023-04-10T10:29:18;4.43;;;3.30;;
5209;SDS011;2624;48.048;11.706;2023-04-10T10:34:20;4.23;;;3.60;;
5209;SDS011;2624;48.048;11.706;2023-04-10T10:39:25;6.93;;;3.90;;
5209;SDS011;2624;48.048;11.706;2023-04-10T10:44:40;4.67;;;3.30;;
5209;SDS011;2624;48.048;11.706;2023-04-10T10:49:52;5.10;;;3.27;;
5209;SDS011;2624;48.048;11.706;2023-04-10T10:54:56;3.80;;;3.50;;
5209;SDS011;2624;48.048;11.706;2023-04-10T10:59:58;3.77;;;2.93;;
5209;SDS011;2624;48.048;11.706;2023-04-10T11:05:00;3.80;;;3.10;;
5209;SDS011;2624;48.048;11.706;2023-04-10T11:10:03;2.60;;;2.40;;
5209;SDS011;2624;48.048;11.706;2023-04-10T11:15:06;3.33;;;3.03;;
5209;SDS011;2624;48.048;11.706;2023-04-10T11:20:08;4.13;;;3.73;;
5209;SDS011;2624;48.048;11.706;2023-04-10T11:25:11;3.30;;;2.70;;
5209;SDS011;2624;48.048;11.706;2023-04-10T11:30:26;3.10;;;2.20;;
5209;SDS011;2624;48.048;11.706;2023-04-10T11:35:29;2.50;;;2.30;;
5209;SDS011;2624;48.048;11.706;2023-04-10T11:40:33;4.27;;;3.13;;
5209;SDS011;2624;48.048;11.706;2023-04-10T11:45:35;2.53;;;2.33;;
5209;SDS011;2624;48.048;11.706;2023-04-10T11:50:37;3.20;;;3.00;;
5209;SDS011;2624;48.048;11.706;2023-04-10T11:55:40;2.43;;;2.23;;
5209;SDS011;2624;48.048;11.706;2023-04-10T12:00:42;3.80;;;2.87;;
5209;SDS011;2624;48.048;11.706;2023-04-10T12:05:44;4.97;;;3.87;;
5209;SDS011;2624;48.048;11.706;2023-04-10T12:10:48;4.00;;;3.23;;
5209;SDS011;2624;48.048;11.706;2023-04-10T12:15:50;3.43;;;3.23;;
5209;SDS011;2624;48.048;11.706;2023-04-10T12:20:52;2.37;;;2.23;;
5209;SDS011;2624;48.048;11.706;2023-04-10T12:26:06;3.20;;;3.00;;
5209;SDS011;2624;48.048;11.706;2023-04-10T12:31:10;2.60;;;2.40;;
5209;SDS011;2624;48.048;11.706;2023-04-10T12:36:21;6.23;;;3.10;;
5209;SDS011;2624;48.048;11.706;2023-04-10T12:41:25;3.03;;;2.83;;
5209;SDS011;2624;48.048;11.706;2023-04-10T12:46:28;2.40;;;2.20;;
5209;SDS011;2624;48.048;11.706;2023-04-10T12:51:46;2.37;;;2.13;;
5209;SDS011;2624;48.048;11.706;2023-04-10T12:56:50;4.00;;;3.37;;
5209;SDS011;2624;48.048;11.706;2023-04-10T13:01:53;3.60;;;3.30;;
5209;SDS011;2624;48.048;11.706;2023-04-10T13:06:55;2.47;;;2.20;;
5209;SDS011;2624;48.048;11.706;2023-04-10T13:11:58;2.20;;;2.10;;
5209;SDS011;2624;48.048;11.706;2023-04-10T13:17:00;1.57;;;1.47;;
5209;SDS011;2624;48.048;11.706;2023-04-10T13:22:02;2.27;;;2.17;;
5209;SDS011;2624;48.048;11.706;2023-04-10T13:27:05;2.80;;;2.07;;
5209;SDS011;2624;48.048;11.706;2023-04-10T13:32:08;2.63;;;2.43;;
5209;SDS011;2624;48.048;11.706;2023-04-10T13:37:10;2.23;;;2.03;;
5209;SDS011;2624;48.048;11.706;2023-04-10T13:42:14;1.50;;;1.40;;
5209;SDS011;2624;48.048;11.706;2023-04-10T13:47:15;2.47;;;2.27;;
5209;SDS011;2624;48.048;11.706;2023-04-10T13:52:17;2.03;;;1.90;;
5209;SDS011;2624;48.048;11.706;2023-04-10T13:57:20;2.30;;;2.10;;
5209;SDS011;2624;48.048;11.706;2023-04-10T14:02:22;2.40;;;2.30;;
5209;SDS011;2624;48.048;11.706;2023-04-10T14:07:24;3.57;;;2.80;;
5209;SDS011;2624;48.048;11.706;2023-04-10T14:12:27;1.83;;;1.73;;
5209;SDS011;2624;48.048;11.706;2023-04-10T14:17:29;2.40;;;2.20;;
5209;SDS011;2624;48.048;11.706;2023-04-10T14:22:30;2.40;;;2.30;;
5209;SDS011;2624;48.048;11.706;2023-04-10T14:27:33;2.60;;;2.40;;
5209;SDS011;2624;48.048;11.706;2023-04-10T14:32:35;2.07;;;1.97;;
5209;SDS011;2624;48.048;11.706;2023-04-10T14:37:38;2.73;;;2.63;;
5209;SDS011;2624;48.048;11.706;2023-04-10T14:42:41;2.57;;;2.23;;
5209;SDS011;2624;48.048;11.706;2023-04-10T14:47:43;2.37;;;2.20;;
5209;SDS011;2624;48.048;11.706;2023-04-10T14:52:44;1.87;;;1.77;;
5209;SDS011;2624;48.048;11.706;2023-04-10T14:57:47;2.40;;;2.20;;
5209;SDS011;2624;48.048;11.706;2023-04-10T15:02:49;2.80;;;2.60;;
5209;SDS011;2624;48.048;11.706;2023-04-10T15:07:51;2.27;;;2.17;;
5209;SDS011;2624;48.048;11.706;2023-04-10T15:12:54;1.63;;;1.53;;
5209;SDS011;2624;48.048;11.706;2023-04-10T15:17:56;2.80;;;2.60;;
5209;SDS011;2624;48.048;11.706;2023-04-10T15:22:57;2.67;;;2.53;;
5209;SDS011;2624;48.048;11.706;2023-04-10T15:28:02;3.23;;;2.77;;
5209;SDS011;2624;48.048;11.706;2023-04-10T15:33:03;2.23;;;2.13;;
5209;SDS011;2624;48.048;11.706;2023-04-10T15:38:05;2.03;;;1.93;;
5209;SDS011;2624;48.048;11.706;2023-04-10T15:43:08;2.27;;;2.17;;
5209;SDS011;2624;48.048;11.706;2023-04-10T15:48:10;2.30;;;2.20;;
5209;SDS011;2624;48.048;11.706;2023-04-10T15:53:12;2.23;;;2.13;;
5209;SDS011;2624;48.048;11.706;2023-04-10T15:58:15;4.53;;;2.50;;
5209;SDS011;2624;48.048;11.706;2023-04-10T16:03:17;2.80;;;2.30;;
5209;SDS011;2624;48.048;11.706;2023-04-10T16:08:19;2.40;;;2.20;;
5209;SDS011;2624;48.048;11.706;2023-04-10T16:13:24;1.80;;;1.70;;
5209;SDS011;2624;48.048;11.706;2023-04-10T16:18:26;2.70;;;2.50;;
5209;SDS011;2624;48.048;11.706;2023-04-10T16:23:28;2.57;;;2.37;;
5209;SDS011;2624;48.048;11.706;2023-04-10T16:28:31;4.10;;;2.40;;
5209;SDS011;2624;48.048;11.706;2023-04-10T16:33:33;2.40;;;2.30;;
5209;SDS011;2624;48.048;11.706;2023-04-10T16:38:35;4.47;;;2.20;;
5209;SDS011;2624;48.048;11.706;2023-04-10T16:43:38;2.80;;;2.60;;
5209;SDS011;2624;48.048;11.706;2023-04-10T16:48:40;2.83;;;2.63;;
5209;SDS011;2624;48.048;11.706;2023-04-10T16:53:41;2.60;;;2.40;;
5209;SDS011;2624;48.048;11.706;2023-04-10T16:58:45;2.63;;;2.43;;
5209;SDS011;2624;48.048;11.706;2023-04-10T17:03:47;2.50;;;2.30;;
5209;SDS011;2624;48.048;11.706;2023-04-10T17:08:49;2.10;;;1.97;;
5209;SDS011;2624;48.048;11.706;2023-04-10T17:13:52;2.43;;;2.23;;
5209;SDS011;2624;48.048;11.706;2023-04-10T17:18:54;2.37;;;2.27;;
5209;SDS011;2624;48.048;11.706;2023-04-10T17:23:55;2.40;;;2.30;;
5209;SDS011;2624;48.048;11.706;2023-04-10T17:28:59;2.67;;;2.47;;
5209;SDS011;2624;48.048;11.706;2023-04-10T17:34:00;2.03;;;1.93;;
5209;SDS011;2624;48.048;11.706;2023-04-10T17:39:02;2.23;;;2.03;;
5209;SDS011;2624;48.048;11.706;2023-04-10T17:44:06;2.80;;;2.70;;
5209;SDS011;2624;48.048;11.706;2023-04-10T17:49:07;2.70;;;2.50;;
5209;SDS011;2624;48.048;11.706;2023-04-10T17:54:09;2.87;;;2.53;;
5209;SDS011;2624;48.048;11.706;2023-04-10T17:59:12;2.83;;;2.60;;
5209;SDS011;2624;48.048;11.706;2023-04-10T18:04:14;2.10;;;2.00;;
5209;SDS011;2624;48.048;11.706;2023-04-10T18:09:16;3.70;;;2.53;;
5209;SDS011;2624;48.048;11.706;2023-04-10T18:14:19;2.00;;;1.90;;
5209;SDS011;2624;48.048;11.706;2023-04-10T18:19:21;3.37;;;3.07;;
5209;SDS011;2624;48.048;11.706;2023-04-10T18:24:22;3.03;;;2.77;;
5209;SDS011;2624;48.048;11.706;2023-04-10T18:29:26;4.00;;;3.47;;
5209;SDS011;2624;48.048;11.706;2023-04-10T18:34:29;3.63;;;3.33;;
5209;SDS011;2624;48.048;11.706;2023-04-10T18:39:31;5.07;;;2.80;;
5209;SDS011;2624;48.048;11.706;2023-04-10T18:44:36;6.80;;;3.40;;
5209;SDS011;2624;48.048;11.706;2023-04-10T18:49:38;4.23;;;2.70;;
5209;SDS011;2624;48.048;11.706;2023-04-10T18:54:39;3.30;;;3.10;;
5209;SDS011;2624;48.048;11.706;2023-04-10T18:59:45;3.10;;;2.80;;
5209;SDS011;2624;48.048;11.706;2023-04-10T19:04:47;5.80;;;3.17;;
5209;SDS011;2624;48.048;11.706;2023-04-10T19:09:49;3.53;;;2.73;;
5209;SDS011;2624;48.048;11.706;2023-04-10T19:14:52;3.30;;;3.00;;
5209;SDS011;2624;48.048;11.706;2023-04-10T19:19:53;3.50;;;3.03;;
5209;SDS011;2624;48.048;11.706;2023-04-10T19:24:56;3.63;;;3.17;;
5209;SDS011;2624;48.048;11.706;2023-04-10T19:29:59;3.70;;;2.63;;
5209;SDS011;2624;48.048;11.706;2023-04-10T19:35:01;3.87;;;3.57;;
5209;SDS011;2624;48.048;11.706;2023-04-10T19:40:03;2.87;;;2.70;;
5209;SDS011;2624;48.048;11.706;2023-04-10T19:45:07;3.13;;;2.83;;
5209;SDS011;2624;48.048;11.706;2023-04-10T19:50:10;3.17;;;2.97;;
5209;SDS011;2624;48.048;11.706;2023-04-10T19:55:12;3.20;;;3.00;;
5209;SDS011;2624;48.048;11.706;2023-04-10T20:00:15;3.97;;;3.00;;
5209;SDS011;2624;48.048;11.706;2023-04-10T20:05:17;4.13;;;3.53;;
5209;SDS011;2624;48.048;11.706;2023-04-10T20:10:19;3.00;;;2.80;;
5209;SDS011;2624;48.048;11.706;2023-04-10T20:15:22;5.00;;;3.40;;
5209;SDS011;2624;48.048;11.706;2023-04-10T20:20:24;2.73;;;2.53;;
5209;SDS011;2624;48.048;11.706;2023-04-10T20:25:26;4.13;;;3.07;;
5209;SDS011;2624;48.048;11.706;2023-04-10T20:30:29;3.83;;;3.43;;
5209;SDS011;2624;48.048;11.706;2023-04-10T20:35:31;4.83;;;3.90;;
5209;SDS011;2624;48.048;11.706;2023-04-10T20:40:32;4.57;;;3.53;;
5209;SDS011;2624;48.048;11.706;2023-04-10T20:45:36;4.23;;;3.87;;
5209;SDS011;2624;48.048;11.706;2023-04-10T20:50:40;3.70;;;3.03;;
5209;SDS011;2624;48.048;11.706;2023-04-10T20:55:42;3.27;;;3.07;;
5209;SDS011;2624;48.048;11.706;2023-04-10T21:00:45;6.37;;;3.13;;
5209;SDS011;2624;48.048;11.706;2023-04-10T21:05:47;4.77;;;3.97;;
5209;SDS011;2624;48.048;11.706;2023-04-10T21:10:49;18.27;;;7.87;;
5209;SDS011;2624;48.048;11.706;2023-04-10T21:15:52;7.60;;;4.63;;
5209;SDS011;2624;48.048;11.706;2023-04-10T21:20:54;5.30;;;4.40;;
5209;SDS011;2624;48.048;11.706;2023-04-10T21:25:55;3.80;;;3.50;;
5209;SDS011;2624;48.048;11.706;2023-04-10T21:30:58;3.50;;;3.20;;
5209;SDS011;2624;48.048;11.706;2023-04-10T21:36:00;4.37;;;3.60;;
5209;SDS011;2624;48.048;11.706;2023-04-10T21:41:02;4.77;;;3.70;;
5209;SDS011;2624;48.048;11.706;2023-04-10T21:46:06;5.50;;;4.10;;
5209;SDS011;2624;48.048;11.706;2023-04-10T21:51:08;4.70;;;3.80;;
5209;SDS011;2624;48.048;11.706;2023-04-10T21:56:09;4.13;;;3.83;;
5209;SDS011;2624;48.048;11.706;2023-04-10T22:01:12;3.60;;;3.30;;
5209;SDS011;2624;48.048;11.706;2023-04-10T22:06:14;4.20;;;3.57;;
5209;SDS011;2624;48.048;11.706;2023-04-10T22:11:16;4.30;;;3.80;;
5209;SDS011;2624;48.048;11.706;2023-04-10T22:16:19;5.07;;;3.77;;
5209;SDS011;2624;48.048;11.706;2023-04-10T22:21:21;3.90;;;3.50;;
5209;SDS011;2624;48.048;11.706;2023-04-10T22:26:24;4.33;;;3.23;;
5209;SDS011;2624;48.048;11.706;2023-04-10T22:31:27;4.10;;;3.50;;
5209;SDS011;2624;48.048;11.706;2023-04-10T22:36:31;2.97;;;2.77;;
5209;SDS011;2624;48.048;11.706;2023-04-10T22:41:33;3.13;;;2.93;;
5209;SDS011;2624;48.048;11.706;2023-04-10T22:46:36;3.53;;;2.90;;
5209;SDS011;2624;48.048;11.706;2023-04-10T22:51:38;2.60;;;2.33;;
5209;SDS011;2624;48.048;11.706;2023-04-10T22:56:41;2.60;;;2.40;;
5209;SDS011;2624;48.048;11.706;2023-04-10T23:01:45;5.47;;;2.57;;
5209;SDS011;2624;48.048;11.706;2023-04-10T23:06:47;1.87;;;1.77;;
5209;SDS011;2624;48.048;11.706;2023-04-10T23:11:48;2.30;;;2.03;;
5209;SDS011;2624;48.048;11.706;2023-04-10T23:16:51;1.80;;;1.70;;
5209;SDS011;2624;48.048;11.706;2023-04-10T23:21:53;2.60;;;2.40;;
5209;SDS011;2624;48.048;11.706;2023-04-10T23:26:55;1.70;;;1.60;;
5209;SDS011;2624;48.048;11.706;2023-04-10T23:31:58;2.33;;;1.70;;
5209;SDS011;2624;48.048;11.706;2023-04-10T23:37:00;2.17;;;2.07;;
5209;SDS011;2624;48.048;11.706;2023-04-10T23:42:02;2.10;;;2.00;;
5209;SDS011;2624;48.048;11.706;2023-04-10T23:47:05;2.07;;;1.97;;
5209;SDS011;2624;48.048;11.706;2023-04-10T23:52:08;5.73;;;1.73;;
5209;SDS011;2624;48.048;11.706;2023-04-10T23:57:10;2.30;;;2.10;;
